Details for Norwegian Air Shuttle at ENBR




Go Back


Latest METAR
Local Time

ENBR 211420Z 29003KT 250V320 9999 FEW007 SCT013 BKN030 03/01 Q1026 NOSIG RMK WIND 1200FT VRB03KT

21/02/2018, 15:57:19

Description
Results
Norwegian Air Shuttle Logo
Number of Pilots based at ENBR
0 Pilots Based here
Number of Norwegian Air Shuttle Flights Departed from ENBR
0 Flights Departed
Number of Norwegian Air Shuttle Flights Arrived at ENBR
0 Flights Arrived
Number of Norwegian Air Shuttle Schedules Departing from ENBR
46 Schedules
Number of Norwegian Air Shuttle Schedules Arriving at ENBR
43 Schedules
Number of Norwegian Air Shuttle Schedules Departing from ENBR availible today
22 Schedules Today
Number of Norwegian Air Shuttle Schedules Arriving at ENBR availible today
22 Schedules Today
Average Landing Rate at ENBR
-213 fpm
Norwegian Air Shuttle Average Landing Rate at ENBR
0 fpm
Total Fuel Purchased at ENBR by Norwegian Air Shuttle
0.00 kgs / 0.00 lbs

Pilots Based at ENBR


Pilot ID
Pilot Name
Pilot Rank
No. of Flights
No. of Flying Hours
There are no pilots assigned to this hub!   Will you be the first?
Content